Time;durP1;ratioP1;P1;durP2;ratioP2;P2;SDS_P1;SDS_P2;PMS_P1;PMS_P2;Temp;Humidity;BMP_temperature;BMP_pressure;BME280_temperature;BME280_humidity;BME280_pressure;Samples;Min_cycle;Max_cycle;Signal;HPM_P1;HPM_P2
2022/09/12 00:02:20;;;;;;;9.65;8.65;;;15.00;99.90;;;;;;5007076;28;20064;-76
2022/09/12 00:04:46;;;;;;;8.52;7.68;;;15.00;99.90;;;;;;4963461;28;20041;-75
2022/09/12 00:07:12;;;;;;;11.85;10.73;;;15.00;99.90;;;;;;4977677;28;20045;-76
2022/09/12 00:09:38;;;;;;;11.98;10.77;;;15.00;99.90;;;;;;5009936;28;20596;-77
2022/09/12 00:12:04;;;;;;;10.40;9.32;;;14.90;99.90;;;;;;5000131;28;20040;-76
2022/09/12 00:14:30;;;;;;;9.65;8.73;;;14.90;99.90;;;;;;5011084;28;20060;-77
2022/09/12 00:16:59;;;;;;;10.68;8.15;;;14.90;99.90;;;;;;5014256;28;20073;-74
2022/09/12 00:19:27;;;;;;;8.45;7.55;;;14.90;99.90;;;;;;5013561;28;20095;-78
2022/09/12 00:21:53;;;;;;;8.82;7.35;;;14.80;99.90;;;;;;4995717;28;20030;-74
2022/09/12 00:24:19;;;;;;;6.90;6.30;;;14.80;99.90;;;;;;5004295;28;20111;-75
2022/09/12 00:26:44;;;;;;;7.80;7.07;;;14.80;99.90;;;;;;5016353;28;20103;-75
2022/09/12 00:29:16;;;;;;;8.55;7.75;;;14.80;99.90;;;;;;4998367;28;20045;-75
2022/09/12 00:31:41;;;;;;;8.90;8.07;;;14.80;99.90;;;;;;5012999;28;20095;-78
2022/09/12 00:34:08;;;;;;;7.55;6.70;;;14.80;99.90;;;;;;4986040;28;20041;-75
2022/09/12 00:36:35;;;;;;;7.82;7.13;;;14.70;99.90;;;;;;5003236;28;20091;-78
2022/09/12 00:39:02;;;;;;;7.97;7.28;;;14.70;99.90;;;;;;4997516;28;21024;-77
2022/09/12 00:41:33;;;;;;;8.35;7.47;;;14.70;99.90;;;;;;4984872;28;20037;-77
2022/09/12 00:44:02;;;;;;;9.05;8.15;;;14.70;99.90;;;;;;4989550;28;20037;-77
2022/09/12 00:46:38;;;;;;;9.38;7.75;;;14.60;99.90;;;;;;4991116;28;20067;-77
2022/09/12 00:49:14;;;;;;;8.73;7.88;;;14.60;99.90;;;;;;4996549;28;20520;-77
2022/09/12 00:51:45;;;;;;;7.93;7.15;;;14.60;99.90;;;;;;4995569;28;20079;-77
2022/09/12 00:54:15;;;;;;;8.27;7.47;;;14.60;99.90;;;;;;4988133;28;20049;-77
2022/09/12 00:56:44;;;;;;;9.70;8.43;;;14.60;99.90;;;;;;4991577;28;20037;-77
2022/09/12 00:59:28;;;;;;;9.88;8.90;;;14.60;99.90;;;;;;5008836;28;20045;-79
2022/09/12 01:01:54;;;;;;;8.13;7.43;;;14.60;99.90;;;;;;4997090;28;20041;-76
2022/09/12 01:04:24;;;;;;;9.43;8.07;;;14.20;99.90;;;;;;4977491;28;20158;-78
2022/09/12 01:06:51;;;;;;;8.52;7.65;;;14.50;99.90;;;;;;4993908;28;20543;-79
2022/09/12 01:09:20;;;;;;;9.73;8.73;;;14.50;99.90;;;;;;4977190;28;20037;-78
2022/09/12 01:11:48;;;;;;;7.82;7.13;;;14.40;99.90;;;;;;4977442;28;20073;-76
2022/09/12 01:14:15;;;;;;;8.93;7.90;;;14.40;99.90;;;;;;4970470;28;20136;-78
2022/09/12 01:16:42;;;;;;;10.70;9.25;;;14.40;99.90;;;;;;4975423;28;20116;-80
2022/09/12 01:19:30;;;;;;;9.85;8.95;;;14.40;99.90;;;;;;4991570;28;20037;-78
2022/09/12 01:22:30;;;;;;;9.27;8.40;;;14.40;99.90;;;;;;4981084;28;20124;-75
2022/09/12 01:25:14;;;;;;;8.55;7.68;;;14.30;99.90;;;;;;4992881;28;20119;-76
2022/09/12 01:28:06;;;;;;;8.70;7.90;;;14.30;99.90;;;;;;4991348;28;20037;-78
2022/09/12 01:30:54;;;;;;;7.35;6.75;;;14.30;99.90;;;;;;5013406;28;20056;-76
2022/09/12 01:33:30;;;;;;;10.13;9.18;;;14.30;99.90;;;;;;4978159;28;20861;-77
2022/09/12 01:36:38;;;;;;;10.32;8.95;;;14.30;99.90;;;;;;4974428;28;21155;-78
2022/09/12 01:39:24;;;;;;;8.77;7.97;;;14.30;99.90;;;;;;4991250;28;20065;-74
2022/09/12 01:42:20;;;;;;;8.13;7.32;;;14.30;99.90;;;;;;5010327;28;20033;-75
2022/09/12 01:44:55;;;;;;;8.73;7.82;;;14.30;99.90;;;;;;4991854;28;20044;-74
2022/09/12 01:47:34;;;;;;;9.90;8.95;;;14.30;99.90;;;;;;5012636;28;20030;-77
2022/09/12 01:50:16;;;;;;;9.60;8.60;;;14.30;99.90;;;;;;4989694;28;20050;-75
2022/09/12 01:52:48;;;;;;;11.27;10.15;;;14.30;99.90;;;;;;4990826;28;20069;-79
2022/09/12 01:55:44;;;;;;;12.07;10.85;;;14.20;99.90;;;;;;4990808;28;20407;-76
2022/09/12 01:58:35;;;;;;;9.55;8.57;;;14.20;99.90;;;;;;4986262;28;20925;-77
2022/09/12 02:01:09;;;;;;;10.88;8.93;;;14.20;99.90;;;;;;4992609;28;20152;-79
2022/09/12 02:03:56;;;;;;;10.68;9.57;;;14.20;99.90;;;;;;4991738;28;20043;-76
2022/09/12 02:06:35;;;;;;;10.55;9.05;;;14.20;99.90;;;;;;5008159;28;20179;-78
2022/09/12 02:09:11;;;;;;;9.95;9.02;;;14.20;99.90;;;;;;5005828;28;20045;-75
2022/09/12 02:11:41;;;;;;;10.20;8.70;;;14.20;99.90;;;;;;4997469;28;20501;-76
2022/09/12 02:14:32;;;;;;;10.50;8.82;;;14.20;99.90;;;;;;4990224;28;20045;-76
2022/09/12 02:17:03;;;;;;;9.98;9.02;;;14.20;99.90;;;;;;4991896;28;20037;-76
2022/09/12 02:19:35;;;;;;;11.40;9.32;;;14.20;99.90;;;;;;5013815;28;20615;-76
2022/09/12 02:22:03;;;;;;;13.50;11.57;;;14.20;99.90;;;;;;5010934;28;20211;-77
2022/09/12 02:24:34;;;;;;;11.70;10.60;;;14.30;99.90;;;;;;5014490;28;20025;-75
2022/09/12 02:27:11;;;;;;;12.73;11.52;;;14.30;99.90;;;;;;5017842;28;20034;-78
2022/09/12 02:29:36;;;;;;;10.23;9.15;;;14.30;99.90;;;;;;5017553;28;20052;-75
2022/09/12 02:32:28;;;;;;;10.85;9.77;;;14.30;99.90;;;;;;4989804;28;20041;-77
2022/09/12 02:35:21;;;;;;;12.77;11.52;;;14.30;99.90;;;;;;5014450;28;20136;-76
2022/09/12 02:38:25;;;;;;;11.70;10.50;;;14.30;99.90;;;;;;5013365;28;20072;-75
2022/09/12 02:40:51;;;;;;;11.68;10.00;;;14.20;99.90;;;;;;4972709;28;20042;-77
2022/09/12 02:43:17;;;;;;;13.48;12.07;;;14.20;99.90;;;;;;4997801;28;20087;-77
2022/09/12 02:45:43;;;;;;;14.07;12.63;;;14.20;99.90;;;;;;4978549;28;20180;-76
2022/09/12 02:48:20;;;;;;;12.65;11.35;;;14.10;99.90;;;;;;4980681;28;20053;-77
2022/09/12 02:50:46;;;;;;;16.58;12.65;;;14.20;99.90;;;;;;4998872;28;20046;-75
2022/09/12 02:53:11;;;;;;;14.77;13.05;;;14.20;99.90;;;;;;4978904;28;20256;-76
2022/09/12 02:55:40;;;;;;;13.07;11.70;;;14.10;99.90;;;;;;4995361;28;20033;-78
2022/09/12 02:58:10;;;;;;;12.85;11.55;;;14.10;99.90;;;;;;4995733;28;20056;-77
2022/09/12 03:01:06;;;;;;;12.73;11.48;;;14.10;99.90;;;;;;4997840;28;20197;-75
2022/09/12 03:03:50;;;;;;;14.88;12.85;;;14.10;99.90;;;;;;4985469;28;20155;-75
2022/09/12 03:06:24;;;;;;;12.68;11.35;;;14.10;99.90;;;;;;4984588;28;20056;-78
2022/09/12 03:09:34;;;;;;;16.27;13.57;;;14.10;99.90;;;;;;4991647;28;20045;-76
2022/09/12 03:12:24;;;;;;;18.05;15.70;;;14.10;99.90;;;;;;4987251;28;20046;-77
2022/09/12 03:15:16;;;;;;;18.50;15.77;;;14.10;99.90;;;;;;4993414;28;20041;-77
2022/09/12 03:18:25;;;;;;;18.92;16.98;;;14.10;99.90;;;;;;4997463;28;20055;-77
2022/09/12 03:21:07;;;;;;;23.00;16.15;;;14.10;99.90;;;;;;4943450;28;20508;-75
2022/09/12 03:24:03;;;;;;;19.10;16.95;;;14.30;99.90;;;;;;4975891;28;20060;-77
2022/09/12 03:26:57;;;;;;;19.60;17.50;;;14.10;99.90;;;;;;4980235;28;20396;-78
2022/09/12 03:29:24;;;;;;;;;;;14.10;99.90;;;;;;4982007;28;20041;-77
2022/09/12 03:31:53;;;;;;;24.33;20.42;;;14.10;99.90;;;;;;4981185;28;19917;-77
2022/09/12 03:34:20;;;;;;;23.05;19.73;;;14.10;99.90;;;;;;4993687;28;20045;-77
2022/09/12 03:36:46;;;;;;;22.88;19.88;;;14.10;99.90;;;;;;4996974;28;20037;-76
2022/09/12 03:39:12;;;;;;;24.08;20.85;;;14.10;99.90;;;;;;4977571;28;20042;-77
2022/09/12 03:41:38;;;;;;;21.83;18.83;;;14.10;99.90;;;;;;4963972;28;20041;-78
2022/09/12 03:44:04;;;;;;;20.60;18.08;;;14.10;99.90;;;;;;4996576;28;20044;-80
2022/09/12 03:46:29;;;;;;;24.45;20.45;;;13.80;99.90;;;;;;4979703;28;20045;-75
2022/09/12 03:48:55;;;;;;;27.50;20.75;;;14.20;99.90;;;;;;4998788;28;20363;-77
2022/09/12 03:51:21;;;;;;;24.17;20.58;;;14.20;99.90;;;;;;4999953;28;20473;-76
2022/09/12 03:53:47;;;;;;;22.75;19.30;;;14.20;99.90;;;;;;4978758;28;20584;-75
2022/09/12 03:56:13;;;;;;;25.90;23.05;;;14.20;99.90;;;;;;4995576;28;20041;-77
2022/09/12 03:58:39;;;;;;;27.17;21.67;;;14.20;99.90;;;;;;4995361;28;20045;-76
2022/09/12 04:01:17;;;;;;;24.63;21.75;;;14.20;99.90;;;;;;4984496;28;20053;-77
2022/09/12 04:03:45;;;;;;;25.30;21.40;;;14.20;99.90;;;;;;4996442;28;20122;-79
2022/09/12 04:06:14;;;;;;;27.55;23.40;;;14.20;99.90;;;;;;4990272;28;20107;-75
2022/09/12 04:08:41;;;;;;;26.40;23.42;;;14.20;99.90;;;;;;4999245;28;20056;-76
2022/09/12 04:11:12;;;;;;;22.08;19.77;;;14.30;99.90;;;;;;5012561;28;20084;-75
2022/09/12 04:13:39;;;;;;;26.45;22.85;;;14.30;99.90;;;;;;4991327;28;20045;-76
2022/09/12 04:16:06;;;;;;;24.05;21.33;;;14.30;99.90;;;;;;5013752;28;20038;-77
2022/09/12 04:18:32;;;;;;;28.83;24.23;;;14.30;99.90;;;;;;4997299;28;20072;-79
2022/09/12 04:21:02;;;;;;;26.50;21.95;;;14.40;99.90;;;;;;5000187;28;20112;-76
2022/09/12 04:23:27;;;;;;;26.50;21.75;;;14.40;99.90;;;;;;5002379;28;20037;-77
2022/09/12 04:25:55;;;;;;;27.65;23.48;;;14.40;99.90;;;;;;5010305;28;20102;-78
2022/09/12 04:28:21;;;;;;;29.13;25.60;;;14.40;99.90;;;;;;5026403;28;20037;-77
2022/09/12 04:30:47;;;;;;;28.98;24.75;;;14.40;99.90;;;;;;5017666;28;20343;-78
2022/09/12 04:33:13;;;;;;;25.95;22.40;;;14.40;99.90;;;;;;4996518;28;20084;-77
2022/09/12 04:35:40;;;;;;;31.27;26.40;;;14.50;99.90;;;;;;5012198;28;20120;-78
2022/09/12 04:38:06;;;;;;;28.33;25.33;;;14.50;99.90;;;;;;4993470;28;20289;-76
2022/09/12 04:40:32;;;;;;;26.83;22.92;;;14.50;99.90;;;;;;4993517;28;20130;-77
2022/09/12 04:42:58;;;;;;;31.80;25.58;;;14.50;99.90;;;;;;4977968;28;20037;-77
2022/09/12 04:45:24;;;;;;;28.73;25.10;;;14.50;99.90;;;;;;4981658;28;20048;-78
2022/09/12 04:47:50;;;;;;;29.25;25.70;;;14.50;99.90;;;;;;4977880;28;20048;-77
2022/09/12 04:50:16;;;;;;;31.38;25.60;;;14.60;99.90;;;;;;4977824;28;20069;-77
2022/09/12 04:52:42;;;;;;;26.73;23.73;;;14.60;99.90;;;;;;4982031;28;20042;-78
2022/09/12 04:55:08;;;;;;;28.00;24.20;;;14.60;99.90;;;;;;4993794;28;20088;-75
2022/09/12 04:57:34;;;;;;;26.08;23.35;;;14.60;99.90;;;;;;4992836;28;20045;-78
2022/09/12 05:00:01;;;;;;;29.00;24.58;;;14.60;99.90;;;;;;4979127;28;20040;-80
2022/09/12 05:02:27;;;;;;;27.85;23.88;;;14.70;99.90;;;;;;4981476;28;20045;-79
2022/09/12 05:04:53;;;;;;;26.27;22.70;;;14.60;99.90;;;;;;4994007;28;20521;-77
2022/09/12 05:07:19;;;;;;;29.33;25.63;;;14.70;99.90;;;;;;4990704;28;20041;-77
2022/09/12 05:09:44;;;;;;;27.08;23.27;;;14.70;99.90;;;;;;5007431;28;20504;-78
2022/09/12 05:12:10;;;;;;;31.38;26.08;;;14.70;99.90;;;;;;5010410;28;20793;-75
2022/09/12 05:14:36;;;;;;;30.23;25.60;;;14.70;99.90;;;;;;4996237;28;20119;-76
2022/09/12 05:17:04;;;;;;;30.42;25.77;;;14.70;99.90;;;;;;4974899;28;20124;-78
2022/09/12 05:19:31;;;;;;;29.63;26.42;;;14.70;99.90;;;;;;4990610;28;20186;-77
2022/09/12 05:21:57;;;;;;;32.13;26.23;;;14.70;99.90;;;;;;4977203;28;20061;-75
2022/09/12 05:24:23;;;;;;;29.35;26.17;;;14.80;99.90;;;;;;4988485;28;20072;-77
2022/09/12 05:26:49;;;;;;;31.05;26.55;;;14.80;99.90;;;;;;4964062;28;20128;-74
2022/09/12 05:29:15;;;;;;;28.70;24.58;;;14.80;99.90;;;;;;4976732;28;20045;-76
2022/09/12 05:31:40;;;;;;;28.58;23.40;;;14.80;99.90;;;;;;4961995;28;20037;-79
2022/09/12 05:34:08;;;;;;;30.33;26.17;;;14.70;99.90;;;;;;4992509;28;20053;-77
2022/09/12 05:36:36;;;;;;;33.05;26.52;;;14.80;99.90;;;;;;4979802;28;20072;-75
2022/09/12 05:39:02;;;;;;;32.13;26.10;;;14.80;99.90;;;;;;4982627;28;20049;-77
2022/09/12 05:41:30;;;;;;;31.00;25.70;;;14.80;99.90;;;;;;4979586;28;20056;-78
2022/09/12 05:43:58;;;;;;;30.05;25.08;;;14.80;99.90;;;;;;4994957;28;20063;-77
2022/09/12 05:46:26;;;;;;;32.13;26.38;;;14.80;99.90;;;;;;4979033;28;20133;-77
2022/09/12 05:48:53;;;;;;;30.45;26.27;;;14.80;99.90;;;;;;5000530;28;20041;-78
2022/09/12 05:51:32;;;;;;;28.40;25.15;;;14.90;99.90;;;;;;4965732;28;20065;-78
2022/09/12 05:54:00;;;;;;;30.50;24.55;;;14.90;99.90;;;;;;5015381;28;20548;-76
2022/09/12 05:58:56;;;;;;;30.73;27.20;;;14.90;99.90;;;;;;4977616;28;20468;-59
2022/09/12 06:01:22;;;;;;;30.65;26.60;;;14.90;99.90;;;;;;4976867;28;20038;-58
2022/09/12 06:03:51;;;;;;;31.92;26.48;;;14.90;99.90;;;;;;4980201;28;20072;-59
2022/09/12 06:06:19;;;;;;;30.20;25.98;;;15.00;99.90;;;;;;4994279;28;20038;-59
2022/09/12 06:08:48;;;;;;;30.60;24.30;;;15.00;99.90;;;;;;4986301;28;20056;-59
2022/09/12 06:11:22;;;;;;;33.45;24.52;;;15.00;99.90;;;;;;5003486;28;20092;-59
2022/09/12 06:13:49;;;;;;;34.35;27.20;;;15.10;99.90;;;;;;4990299;28;20092;-60
2022/09/12 06:16:24;;;;;;;32.70;26.38;;;15.10;99.90;;;;;;4990359;28;20056;-60
2022/09/12 06:18:52;;;;;;;32.70;28.10;;;15.10;99.90;;;;;;4974675;28;20034;-59
2022/09/12 06:21:19;;;;;;;34.40;28.27;;;15.10;99.90;;;;;;5002522;28;20038;-60
2022/09/12 06:23:45;;;;;;;32.80;27.98;;;15.10;99.90;;;;;;5000846;28;20050;-57
2022/09/12 06:26:12;;;;;;;33.60;27.17;;;15.10;99.90;;;;;;4984941;28;20128;-59
2022/09/12 06:28:40;;;;;;;32.60;27.15;;;15.20;99.90;;;;;;5006653;28;22005;-59
2022/09/12 06:31:09;;;;;;;35.38;27.45;;;15.20;99.90;;;;;;4984217;28;20045;-59
2022/09/12 06:33:38;;;;;;;34.10;27.67;;;15.20;99.90;;;;;;5004208;28;20050;-59
2022/09/12 06:36:10;;;;;;;34.85;27.95;;;15.20;99.90;;;;;;5003936;28;20139;-60
2022/09/12 06:38:37;;;;;;;38.15;28.92;;;15.30;99.90;;;;;;4984178;28;20038;-60
2022/09/12 06:41:05;;;;;;;36.03;28.27;;;15.30;99.90;;;;;;4946459;28;20042;-59
2022/09/12 06:43:31;;;;;;;30.30;25.98;;;15.30;99.90;;;;;;4941518;28;20672;-59
2022/09/12 06:45:57;;;;;;;34.83;28.17;;;15.30;99.90;;;;;;4977673;28;20089;-58
2022/09/12 06:48:23;;;;;;;40.78;30.13;;;15.40;99.90;;;;;;4970635;28;20133;-59
2022/09/12 06:51:04;;;;;;;37.90;29.77;;;15.40;99.90;;;;;;4960705;28;20046;-60
2022/09/12 06:53:37;;;;;;;37.47;28.75;;;15.50;99.90;;;;;;4978378;28;20084;-59
2022/09/12 06:56:05;;;;;;;36.33;29.83;;;15.50;99.90;;;;;;4981394;28;20045;-60
2022/09/12 06:58:32;;;;;;;40.60;30.98;;;15.40;99.90;;;;;;4976283;28;20312;-59
2022/09/12 07:01:08;;;;;;;40.88;31.73;;;15.60;99.90;;;;;;4961893;28;20053;-60
2022/09/12 07:03:35;;;;;;;47.60;34.03;;;15.50;99.90;;;;;;4964530;28;20535;-59
2022/09/12 07:06:06;;;;;;;46.22;33.65;;;15.70;99.90;;;;;;4960243;28;20148;-59
2022/09/12 07:08:33;;;;;;;44.42;34.78;;;15.70;99.90;;;;;;4987519;28;20172;-59
2022/09/12 07:11:07;;;;;;;49.67;35.20;;;15.70;99.90;;;;;;4969020;28;20050;-60
2022/09/12 07:13:33;;;;;;;44.78;34.17;;;15.70;99.90;;;;;;4994750;28;20398;-60
2022/09/12 07:16:04;;;;;;;46.72;34.47;;;15.70;99.90;;;;;;5004269;28;20038;-59
2022/09/12 07:18:30;;;;;;;53.72;39.10;;;15.80;99.90;;;;;;4986264;28;20061;-59
2022/09/12 07:20:59;;;;;;;45.95;33.83;;;15.80;99.90;;;;;;5004246;28;20042;-59
2022/09/12 07:23:25;;;;;;;45.95;35.53;;;15.80;99.90;;;;;;4987384;28;20038;-59
2022/09/12 07:25:59;;;;;;;52.03;36.70;;;15.90;99.90;;;;;;4997078;28;20052;-59
2022/09/12 07:28:30;;;;;;;47.83;36.42;;;15.90;99.90;;;;;;4990199;28;20050;-60
2022/09/12 07:30:56;;;;;;;51.90;38.00;;;16.00;99.90;;;;;;5005616;28;20040;-58
2022/09/12 07:33:26;;;;;;;46.33;36.22;;;16.00;99.90;;;;;;4999833;28;20034;-59
2022/09/12 07:35:53;;;;;;;55.90;36.88;;;16.00;99.90;;;;;;5000757;28;20085;-59
2022/09/12 07:38:22;;;;;;;49.67;36.75;;;16.10;99.90;;;;;;5005588;28;20111;-59
2022/09/12 07:40:48;;;;;;;54.42;39.55;;;16.10;99.90;;;;;;5003047;28;20045;-58
2022/09/12 07:43:14;;;;;;;55.05;38.42;;;16.20;99.90;;;;;;5009176;28;20041;-59
2022/09/12 07:45:41;;;;;;;52.38;38.50;;;16.20;99.90;;;;;;5007766;28;20389;-60
2022/09/12 07:48:08;;;;;;;53.83;40.53;;;16.30;99.90;;;;;;4993765;28;20041;-60
2022/09/12 07:50:35;;;;;;;52.20;37.67;;;16.30;99.90;;;;;;5010630;28;20121;-59
2022/09/12 07:53:02;;;;;;;54.25;39.30;;;16.40;99.90;;;;;;4989823;28;20064;-60
2022/09/12 07:55:28;;;;;;;59.90;41.50;;;16.40;99.90;;;;;;5001463;28;20046;-59
2022/09/12 07:57:54;;;;;;;58.08;41.10;;;16.50;99.90;;;;;;5003299;28;20046;-60
2022/09/12 08:00:20;;;;;;;58.10;40.95;;;16.60;99.90;;;;;;5005265;28;20385;-58
2022/09/12 08:02:55;;;;;;;55.60;40.25;;;16.60;99.90;;;;;;4988059;28;20493;-59
2022/09/12 08:05:21;;;;;;;54.75;41.33;;;16.70;99.90;;;;;;4977785;28;20314;-60
2022/09/12 08:07:48;;;;;;;57.40;41.90;;;16.70;99.90;;;;;;4982937;28;20527;-60
2022/09/12 08:10:15;;;;;;;57.70;41.40;;;16.80;99.90;;;;;;5006307;28;20049;-60
2022/09/12 08:12:41;;;;;;;53.55;39.85;;;16.90;99.90;;;;;;5005403;28;20516;-59
2022/09/12 08:15:07;;;;;;;53.30;37.40;;;16.90;99.90;;;;;;5002509;28;20042;-59
2022/09/12 08:17:33;;;;;;;51.15;36.42;;;17.00;99.90;;;;;;4982116;28;20137;-59
2022/09/12 08:19:59;;;;;;;50.63;37.38;;;17.20;99.90;;;;;;4990049;28;20455;-60
2022/09/12 08:22:24;;;;;;;54.88;40.72;;;17.20;99.90;;;;;;4988695;28;20050;-60
2022/09/12 08:24:50;;;;;;;52.70;39.63;;;17.30;99.90;;;;;;4961891;28;20476;-60
2022/09/12 08:27:16;;;;;;;54.33;39.95;;;17.40;99.90;;;;;;5001286;28;20050;-60
2022/09/12 08:29:42;;;;;;;57.40;43.75;;;17.50;99.90;;;;;;4981837;28;20440;-59
2022/09/12 08:32:07;;;;;;;53.55;40.67;;;17.60;99.90;;;;;;5002319;28;20052;-60
2022/09/12 08:34:34;;;;;;;54.55;39.90;;;17.70;99.90;;;;;;4986427;28;20400;-59
2022/09/12 08:36:59;;;;;;;54.35;40.05;;;17.70;99.90;;;;;;4969167;28;20046;-60
2022/09/12 08:39:25;;;;;;;55.50;42.63;;;17.90;99.90;;;;;;4979661;28;20381;-59
2022/09/12 08:42:03;;;;;;;52.78;40.28;;;18.00;99.90;;;;;;5001761;28;20046;-58
2022/09/12 08:44:50;;;;;;;65.55;45.28;;;18.10;99.90;;;;;;4980338;28;20043;-58
2022/09/12 08:47:31;;;;;;;58.42;45.20;;;18.20;99.90;;;;;;4998433;28;20323;-58
2022/09/12 08:50:00;;;;;;;62.50;44.63;;;18.20;99.90;;;;;;4994182;28;20041;-63
2022/09/12 08:52:36;;;;;;;59.35;44.28;;;18.20;99.90;;;;;;4992927;28;20048;-58
2022/09/12 08:55:05;;;;;;;60.15;44.42;;;18.20;99.90;;;;;;4996050;28;20076;-60
2022/09/12 08:57:32;;;;;;;58.03;42.97;;;18.20;99.90;;;;;;4959358;28;20064;-60
2022/09/12 09:00:00;;;;;;;60.05;43.15;;;18.30;99.90;;;;;;4988067;28;20046;-59
2022/09/12 09:02:51;;;;;;;57.38;42.80;;;18.30;99.90;;;;;;4963434;28;20037;-60
2022/09/12 09:05:22;;;;;;;67.90;46.10;;;18.30;99.90;;;;;;4962095;28;20133;-62
2022/09/12 09:08:15;;;;;;;62.17;45.63;;;18.40;99.90;;;;;;4985204;28;20050;-60
2022/09/12 09:10:58;;;;;;;65.40;45.38;;;18.40;99.90;;;;;;4959393;28;20058;-60
2022/09/12 09:16:36;;;;;;;60.25;43.05;;;18.70;99.90;;;;;;4985180;28;20128;-60
2022/09/12 09:19:08;;;;;;;57.85;43.55;;;18.80;99.90;;;;;;4945733;28;20038;-61
2022/09/12 09:21:43;;;;;;;54.00;39.08;;;18.90;99.90;;;;;;4991978;28;20116;-61
2022/09/12 09:24:17;;;;;;;58.88;43.10;;;19.10;99.90;;;;;;4972017;28;20061;-61
2022/09/12 09:26:57;;;;;;;59.50;41.53;;;19.10;99.90;;;;;;4992850;28;20061;-61
2022/09/12 09:29:32;;;;;;;53.28;40.38;;;19.20;99.90;;;;;;4979462;28;20095;-61
2022/09/12 09:32:02;;;;;;;52.83;39.65;;;19.30;99.90;;;;;;4985039;28;20053;-60
2022/09/12 09:34:30;;;;;;;54.53;37.75;;;19.60;99.90;;;;;;4998981;28;20045;-60
2022/09/12 09:37:12;;;;;;;50.53;36.90;;;19.70;99.90;;;;;;5003727;28;20046;-61
2022/09/12 09:39:57;;;;;;;49.95;36.40;;;20.00;99.90;;;;;;5004690;28;20070;-61
2022/09/12 09:42:36;;;;;;;52.63;37.47;;;20.20;99.90;;;;;;4995914;28;20033;-61
2022/09/12 09:45:13;;;;;;;47.50;34.00;;;20.40;99.90;;;;;;4994756;28;20053;-60
2022/09/12 09:47:39;;;;;;;44.65;31.02;;;20.60;99.90;;;;;;4984308;28;20042;-60
2022/09/12 09:50:05;;;;;;;45.28;31.90;;;20.80;99.90;;;;;;5000006;28;20045;-63
2022/09/12 09:52:32;;;;;;;41.10;31.30;;;20.90;99.90;;;;;;4998165;28;20468;-61
2022/09/12 09:55:00;;;;;;;44.83;30.92;;;21.00;99.90;;;;;;5001582;28;20758;-61
2022/09/12 09:57:35;;;;;;;41.13;30.33;;;21.10;99.90;;;;;;4984661;28;20207;-61
2022/09/12 10:00:21;;;;;;;41.03;27.10;;;21.20;99.90;;;;;;5002281;28;20044;-61
2022/09/12 10:03:28;;;;;;;37.85;26.80;;;21.30;99.90;;;;;;4995315;28;20496;-61
2022/09/12 10:06:05;;;;;;;36.72;24.83;;;21.30;99.90;;;;;;4984055;28;20444;-61
2022/09/12 10:08:35;;;;;;;34.00;24.95;;;21.30;99.90;;;;;;4996635;28;20074;-60
2022/09/12 10:11:16;;;;;;;32.38;23.45;;;21.30;99.90;;;;;;4997409;28;20046;-61
2022/09/12 10:13:53;;;;;;;31.98;22.33;;;21.50;99.90;;;;;;4997585;28;20045;-61
2022/09/12 10:16:24;;;;;;;29.13;21.30;;;21.60;99.90;;;;;;5003812;28;20042;-62
2022/09/12 10:18:51;;;;;;;22.33;16.13;;;21.70;99.90;;;;;;5007327;28;20041;-62
2022/09/12 10:21:28;;;;;;;19.58;15.20;;;21.80;99.90;;;;;;4991300;28;20523;-62
2022/09/12 10:24:24;;;;;;;22.05;16.15;;;21.80;99.90;;;;;;4993303;28;20060;-63
2022/09/12 10:26:53;;;;;;;19.88;16.35;;;21.80;99.90;;;;;;5006911;28;20047;-62
2022/09/12 10:29:28;;;;;;;22.48;16.48;;;21.90;99.90;;;;;;4974057;28;20057;-62
2022/09/12 10:31:57;;;;;;;23.73;17.50;;;22.00;99.90;;;;;;4995726;28;20081;-62
2022/09/12 10:34:44;;;;;;;26.08;18.80;;;22.10;99.90;;;;;;4980764;28;20512;-61
2022/09/12 10:37:29;;;;;;;23.73;18.27;;;22.20;99.90;;;;;;4986749;28;20049;-64
2022/09/12 10:39:57;;;;;;;23.95;18.10;;;22.30;99.90;;;;;;4972318;28;20101;-64
2022/09/12 10:42:48;;;;;;;24.38;18.67;;;22.40;99.90;;;;;;4995757;28;20042;-63
2022/09/12 10:45:25;;;;;;;24.63;18.08;;;22.40;99.90;;;;;;4962746;28;20042;-62
2022/09/12 10:47:53;;;;;;;24.73;19.60;;;22.60;99.90;;;;;;4969032;28;20053;-62
2022/09/12 10:50:26;;;;;;;23.17;18.40;;;22.60;99.90;;;;;;4976984;28;20049;-61
2022/09/12 10:52:53;;;;;;;23.33;17.20;;;22.70;99.90;;;;;;4995017;28;20045;-63
2022/09/12 10:55:31;;;;;;;30.25;18.00;;;22.80;99.90;;;;;;4963321;28;20038;-61
2022/09/12 10:57:59;;;;;;;29.35;19.15;;;23.00;99.60;;;;;;4990462;28;20049;-61
2022/09/12 11:00:26;;;;;;;26.08;16.90;;;23.00;99.30;;;;;;4986331;28;20049;-64
2022/09/12 11:03:18;;;;;;;24.55;14.05;;;23.10;99.00;;;;;;4985138;28;20100;-63
2022/09/12 11:05:57;;;;;;;26.10;16.60;;;23.20;98.40;;;;;;4975161;28;20069;-62
2022/09/12 11:08:33;;;;;;;23.95;16.75;;;23.30;98.70;;;;;;4995162;28;20514;-63
2022/09/12 11:11:05;;;;;;;22.58;16.30;;;23.30;98.60;;;;;;4991223;28;20074;-63
2022/09/12 11:13:43;;;;;;;22.13;16.85;;;23.30;98.70;;;;;;4985817;28;20124;-62
2022/09/12 11:16:28;;;;;;;22.00;15.70;;;23.30;98.70;;;;;;4983236;28;20049;-63
2022/09/12 11:19:02;;;;;;;17.38;13.38;;;23.20;98.80;;;;;;4985499;28;20057;-62
2022/09/12 11:21:56;;;;;;;18.50;12.95;;;23.20;97.80;;;;;;4993482;28;20113;-63
2022/09/12 11:24:30;;;;;;;16.85;12.82;;;23.20;97.80;;;;;;4965284;28;20176;-65
2022/09/12 11:27:32;;;;;;;16.50;12.73;;;23.30;97.90;;;;;;4977272;28;20140;-64
2022/09/12 11:30:03;;;;;;;20.92;15.10;;;23.40;97.50;;;;;;4978474;28;20594;-65
2022/09/12 11:32:44;;;;;;;16.63;13.02;;;23.30;97.70;;;;;;4990875;28;20049;-61
2022/09/12 11:35:19;;;;;;;19.58;14.18;;;23.20;97.80;;;;;;4993321;28;20444;-61
2022/09/12 11:38:07;;;;;;;18.30;14.00;;;23.10;96.70;;;;;;4968592;28;20060;-62
2022/09/12 11:40:41;;;;;;;18.00;13.80;;;23.10;97.30;;;;;;4996885;28;20042;-63
2022/09/12 11:43:27;;;;;;;19.13;14.13;;;23.10;97.20;;;;;;4994811;28;20179;-62
2022/09/12 11:45:54;;;;;;;17.13;13.15;;;23.30;97.00;;;;;;4997625;28;20634;-63
2022/09/12 11:48:30;;;;;;;17.85;13.32;;;23.30;97.00;;;;;;4983349;28;20045;-61
2022/09/12 11:50:58;;;;;;;19.55;13.30;;;23.50;96.80;;;;;;4995758;28;20365;-63
2022/09/12 11:53:33;;;;;;;16.85;13.60;;;23.70;97.00;;;;;;4990192;28;20370;-63
2022/09/12 11:56:15;;;;;;;17.48;12.82;;;23.90;96.80;;;;;;4990535;23;20054;-62
2022/09/12 11:58:46;;;;;;;15.90;11.88;;;24.20;96.80;;;;;;4973228;28;20142;-61
2022/09/12 12:01:18;;;;;;;15.43;11.10;;;24.40;96.00;;;;;;4968062;28;20128;-62
2022/09/12 12:03:46;;;;;;;14.02;11.15;;;24.40;95.20;;;;;;4968500;28;20046;-62
2022/09/12 12:06:18;;;;;;;15.55;12.35;;;24.40;95.00;;;;;;4977195;28;20094;-62
2022/09/12 12:08:45;;;;;;;13.38;11.55;;;24.30;94.80;;;;;;4973599;28;20046;-62
2022/09/12 12:11:28;;;;;;;14.75;11.30;;;24.10;95.30;;;;;;4969641;28;20039;-63
2022/09/12 12:14:06;;;;;;;11.23;9.88;;;24.00;95.60;;;;;;4974492;28;20066;-62
2022/09/12 12:16:40;;;;;;;15.90;12.55;;;23.90;95.80;;;;;;4973100;28;20044;-61
2022/09/12 12:19:17;;;;;;;;;;;23.90;95.60;;;;;;4971981;28;20031;-62
2022/09/12 12:21:44;;;;;;;10.38;8.65;;;23.90;95.70;;;;;;4979482;28;19918;-61
2022/09/12 12:24:27;;;;;;;14.35;9.73;;;24.00;96.00;;;;;;4972301;28;20031;-61
2022/09/12 12:26:59;;;;;;;;;;;24.10;95.10;;;;;;4965810;28;20050;-61
2022/09/12 12:29:34;;;;;;;15.15;11.38;;;24.00;94.70;;;;;;4973827;28;19948;-61
2022/09/12 12:32:02;;;;;;;13.68;10.40;;;24.00;95.50;;;;;;4972934;28;20042;-61
2022/09/12 12:34:41;;;;;;;15.35;10.65;;;24.00;95.40;;;;;;4982069;28;20034;-61
2022/09/12 12:37:19;;;;;;;13.20;11.07;;;24.00;95.30;;;;;;4975496;28;20527;-61
2022/09/12 12:39:49;;;;;;;16.00;11.77;;;24.10;95.30;;;;;;4973605;28;20508;-61
2022/09/12 12:42:29;;;;;;;14.32;11.98;;;24.30;95.50;;;;;;4977544;28;20091;-60
2022/09/12 12:44:55;;;;;;;14.63;11.52;;;24.50;95.00;;;;;;4978165;28;20094;-61
2022/09/12 12:47:26;;;;;;;12.27;10.48;;;24.60;94.60;;;;;;4973748;28;20042;-61
2022/09/12 12:50:05;;;;;;;13.02;10.05;;;24.60;94.70;;;;;;4988998;28;20122;-61
2022/09/12 12:52:43;;;;;;;11.80;8.75;;;24.70;94.70;;;;;;4982566;28;20049;-60
2022/09/12 12:55:20;;;;;;;9.85;7.38;;;24.80;94.80;;;;;;4980436;28;20045;-61
2022/09/12 12:57:56;;;;;;;7.63;6.22;;;24.90;94.50;;;;;;4975210;28;20042;-60
2022/09/12 13:00:28;;;;;;;10.90;7.45;;;24.90;94.00;;;;;;4979694;28;20053;-60
2022/09/12 13:03:03;;;;;;;9.60;7.43;;;25.00;93.80;;;;;;4969149;28;20057;-60
2022/09/12 13:05:38;;;;;;;9.27;6.80;;;25.10;93.10;;;;;;4992196;28;20053;-60